Time;durP1;ratioP1;P1;durP2;ratioP2;P2;SDS_P1;SDS_P2;PMS_P1;PMS_P2;Temp;Humidity;BMP_temperature;BMP_pressure;BME280_temperature;BME280_humidity;BME280_pressure;Samples;Min_cycle;Max_cycle;Signal;HPM_P1;HPM_P2
2023/03/02 00:01:35;;;;;;;0.57;0.57;;;;;;;11.55;49.96;95445.78;5055574;28;20507;-63
2023/03/02 00:04:05;;;;;;;0.83;0.50;;;;;;;11.51;49.96;95437.63;5050507;28;20490;-65
2023/03/02 00:06:34;;;;;;;0.00;0.00;;;;;;;11.44;50.05;95423.09;5061768;28;20458;-63
2023/03/02 00:09:04;;;;;;;0.00;0.00;;;;;;;11.55;50.04;95436.06;5057789;28;20438;-62
2023/03/02 00:11:34;;;;;;;0.00;0.00;;;;;;;11.41;49.86;95440.13;5051753;28;20479;-62
2023/03/02 00:14:01;;;;;;;0.10;0.10;;;;;;;11.20;50.47;95444.34;5056926;28;21007;-62
2023/03/02 00:16:27;;;;;;;0.00;0.00;;;;;;;11.40;50.00;95441.19;5053106;28;20497;-61
2023/03/02 00:18:54;;;;;;;0.00;0.00;;;;;;;11.57;49.42;95427.97;5065816;28;20251;-62
2023/03/02 00:21:23;;;;;;;0.10;0.10;;;;;;;11.41;49.98;95426.19;5048430;28;20466;-64
2023/03/02 00:23:51;;;;;;;0.00;0.00;;;;;;;11.21;49.76;95426.78;5052770;28;20439;-61
2023/03/02 00:26:18;;;;;;;0.00;0.00;;;;;;;11.38;49.82;95418.84;5052553;28;20499;-62
2023/03/02 00:28:45;;;;;;;0.63;0.30;;;;;;;11.00;50.64;95415.28;5055946;28;20449;-61
2023/03/02 00:31:12;;;;;;;0.00;0.00;;;;;;;10.89;51.00;95426.66;5052642;28;20446;-63
2023/03/02 00:33:39;;;;;;;0.15;0.15;;;;;;;10.88;50.57;95392.84;5057941;28;20231;-63
2023/03/02 00:36:14;;;;;;;0.00;0.00;;;;;;;11.14;50.57;95424.38;5053247;28;20255;-62
2023/03/02 00:38:41;;;;;;;0.00;0.00;;;;;;;11.04;50.59;95407.69;5060749;28;20588;-63
2023/03/02 00:41:11;;;;;;;0.00;0.00;;;;;;;10.82;50.68;95394.59;5046890;28;20450;-64
2023/03/02 00:43:38;;;;;;;0.00;0.00;;;;;;;10.97;50.85;95407.91;5067873;28;20482;-61
2023/03/02 00:46:13;;;;;;;0.25;0.25;;;;;;;11.00;50.87;95402.16;5064767;28;20557;-65
2023/03/02 00:48:40;;;;;;;0.00;0.00;;;;;;;10.84;50.87;95399.59;5052498;28;20226;-61
2023/03/02 00:51:08;;;;;;;0.03;0.03;;;;;;;10.85;51.17;95399.38;5053168;28;20443;-63
2023/03/02 00:53:36;;;;;;;0.00;0.00;;;;;;;11.10;50.40;95391.78;5057985;28;20275;-62
2023/03/02 00:56:04;;;;;;;0.00;0.00;;;;;;;10.91;50.40;95381.88;5060388;28;20915;-61
2023/03/02 00:58:33;;;;;;;0.00;0.00;;;;;;;10.81;50.61;95379.94;5058224;28;20484;-64
2023/03/02 01:01:09;;;;;;;0.00;0.00;;;;;;;10.83;50.56;95383.09;5061654;28;20443;-62
2023/03/02 01:03:40;;;;;;;0.00;0.00;;;;;;;10.70;51.06;95385.28;5056136;28;20450;-62
2023/03/02 01:06:17;;;;;;;0.00;0.00;;;;;;;10.69;51.23;95384.47;5051607;28;20196;-63
2023/03/02 01:08:44;;;;;;;0.00;0.00;;;;;;;10.76;50.87;95381.69;5051371;28;20224;-63
2023/03/02 01:11:16;;;;;;;0.00;0.00;;;;;;;11.04;49.94;95371.78;5050978;28;20211;-61
2023/03/02 01:13:44;;;;;;;0.00;0.00;;;;;;;11.07;50.20;95371.31;5051737;28;20999;-62
2023/03/02 01:16:11;;;;;;;0.00;0.00;;;;;;;10.93;50.67;95364.84;5069734;28;20474;-62
2023/03/02 01:18:38;;;;;;;0.00;0.00;;;;;;;10.99;50.47;95358.63;5060148;28;20493;-62
2023/03/02 01:21:09;;;;;;;0.00;0.00;;;;;;;10.65;51.16;95362.44;5069954;28;20466;-63
2023/03/02 01:23:36;;;;;;;0.10;0.10;;;;;;;10.86;50.72;95368.69;5055400;28;20815;-63
2023/03/02 01:26:05;;;;;;;0.00;0.00;;;;;;;10.85;50.42;95365.31;5057972;28;20442;-63
2023/03/02 01:28:32;;;;;;;0.00;0.00;;;;;;;11.00;50.06;95370.69;5051260;28;20500;-62
2023/03/02 01:31:01;;;;;;;0.00;0.00;;;;;;;10.71;50.97;95368.53;5061710;28;20242;-62
2023/03/02 01:33:28;;;;;;;0.00;0.00;;;;;;;10.64;50.58;95368.69;5050404;28;20453;-63
2023/03/02 01:35:55;;;;;;;0.00;0.00;;;;;;;10.59;51.18;95365.22;5058739;28;20231;-63
2023/03/02 01:38:22;;;;;;;0.00;0.00;;;;;;;10.64;51.10;95360.84;5057028;28;20224;-64
2023/03/02 01:40:49;;;;;;;0.00;0.00;;;;;;;10.72;50.96;95363.03;5050766;28;20435;-62
2023/03/02 01:43:16;;;;;;;0.30;0.20;;;;;;;10.69;51.29;95368.75;5051364;28;20808;-64
2023/03/02 01:45:45;;;;;;;0.00;0.00;;;;;;;10.52;51.58;95373.28;5050443;28;20972;-63
2023/03/02 01:48:20;;;;;;;0.50;0.50;;;;;;;10.46;52.11;95363.75;5051032;28;20454;-62
2023/03/02 01:50:47;;;;;;;0.00;0.00;;;;;;;10.71;51.48;95350.97;5060750;28;20458;-63
2023/03/02 01:53:15;;;;;;;0.00;0.00;;;;;;;10.75;51.13;95352.06;5055529;28;20200;-64
2023/03/02 01:55:44;;;;;;;0.00;0.00;;;;;;;10.51;51.74;95360.44;5062811;28;21014;-60
2023/03/02 01:58:14;;;;;;;0.00;0.00;;;;;;;10.49;51.91;95352.78;5055812;28;20207;-63
2023/03/02 02:00:42;;;;;;;0.00;0.00;;;;;;;10.46;52.01;95355.91;5050754;28;20204;-63
2023/03/02 02:03:19;;;;;;;0.00;0.00;;;;;;;10.49;52.09;95358.03;5049879;28;20443;-62
2023/03/02 02:05:58;;;;;;;0.47;0.47;;;;;;;10.73;51.04;95350.75;5056103;28;20450;-63
2023/03/02 02:08:25;;;;;;;0.00;0.00;;;;;;;10.86;51.09;95351.13;5063171;28;20439;-63
2023/03/02 02:10:54;;;;;;;0.00;0.00;;;;;;;10.79;51.12;95342.69;5048810;28;20201;-62
2023/03/02 02:13:21;;;;;;;0.30;0.30;;;;;;;10.69;51.31;95353.03;5061979;28;20978;-62
2023/03/02 02:15:48;;;;;;;0.40;0.40;;;;;;;10.85;51.03;95351.38;5060205;28;20470;-63
2023/03/02 02:18:15;;;;;;;0.00;0.00;;;;;;;10.87;51.16;95346.69;5049370;28;20458;-61
2023/03/02 02:20:47;;;;;;;0.00;0.00;;;;;;;11.03;50.95;95351.88;5063178;28;20470;-62
2023/03/02 02:23:27;;;;;;;0.00;0.00;;;;;;;10.89;50.77;95361.13;5049496;28;20457;-61
2023/03/02 02:26:09;;;;;;;0.00;0.00;;;;;;;10.74;51.47;95355.72;5054183;28;20457;-63
2023/03/02 02:29:02;;;;;;;0.10;0.10;;;;;;;10.72;51.25;95352.56;5054784;28;20478;-63
2023/03/02 02:31:54;;;;;;;0.00;0.00;;;;;;;10.77;51.09;95354.44;5052654;28;20200;-62
2023/03/02 02:34:44;;;;;;;0.47;0.47;;;;;;;10.72;51.23;95349.94;5064204;28;20526;-63
2023/03/02 02:37:30;;;;;;;0.20;0.10;;;;;;;10.79;50.82;95347.91;5053942;28;20290;-63
2023/03/02 02:40:00;;;;;;;0.10;0.10;;;;;;;10.95;50.52;95341.00;5053945;28;20879;-61
2023/03/02 02:42:29;;;;;;;0.00;0.00;;;;;;;10.95;50.63;95347.03;5050334;28;20497;-63
2023/03/02 02:44:58;;;;;;;0.00;0.00;;;;;;;11.03;50.76;95344.00;5056974;28;20269;-64
2023/03/02 02:47:26;;;;;;;0.20;0.20;;;;;;;10.99;50.40;95345.53;5057185;28;20192;-63
2023/03/02 02:49:55;;;;;;;0.00;0.00;;;;;;;11.10;49.98;95341.97;5050170;28;20446;-63
2023/03/02 02:52:25;;;;;;;0.00;0.00;;;;;;;11.02;50.64;95352.88;5053512;28;20442;-63
2023/03/02 02:54:55;;;;;;;0.00;0.00;;;;;;;11.00;50.40;95346.31;5067898;28;20716;-62
2023/03/02 02:57:25;;;;;;;0.00;0.00;;;;;;;11.04;50.08;95356.06;5049521;28;20227;-65
2023/03/02 02:59:58;;;;;;;0.73;0.73;;;;;;;10.83;50.45;95330.66;5052790;28;20458;-64
2023/03/02 03:02:29;;;;;;;0.00;0.00;;;;;;;11.09;50.11;95337.75;5048298;28;20950;-63
2023/03/02 03:05:01;;;;;;;0.10;0.10;;;;;;;10.91;50.31;95335.47;5048159;28;20201;-61
2023/03/02 03:07:31;;;;;;;0.00;0.00;;;;;;;10.81;50.69;95335.38;5060699;28;20755;-63
2023/03/02 03:10:13;;;;;;;0.05;0.05;;;;;;;11.04;49.75;95340.31;5064153;28;20443;-63
2023/03/02 03:12:41;;;;;;;0.00;0.00;;;;;;;10.97;50.47;95334.47;5059271;28;20671;-61
2023/03/02 03:15:09;;;;;;;0.00;0.00;;;;;;;11.00;50.00;95333.97;5048567;28;20489;-65
2023/03/02 03:17:36;;;;;;;0.00;0.00;;;;;;;10.99;49.91;95321.13;5060435;28;20992;-63
2023/03/02 03:20:08;;;;;;;0.00;0.00;;;;;;;11.08;49.75;95328.31;5049733;28;20231;-62
2023/03/02 03:22:38;;;;;;;0.00;0.00;;;;;;;10.87;50.15;95329.16;5060451;28;20435;-62
2023/03/02 03:25:08;;;;;;;0.00;0.00;;;;;;;10.93;50.11;95328.13;5049252;28;20200;-64
2023/03/02 03:27:35;;;;;;;0.23;0.23;;;;;;;10.64;50.48;95332.00;5048611;28;20439;-63
2023/03/02 03:30:03;;;;;;;0.00;0.00;;;;;;;10.80;50.28;95333.75;5054516;28;20945;-64
2023/03/02 03:32:34;;;;;;;0.00;0.00;;;;;;;10.81;50.38;95339.81;5061329;28;20531;-65
2023/03/02 03:35:07;;;;;;;0.00;0.00;;;;;;;10.57;50.52;95339.28;5048712;28;20446;-63
2023/03/02 03:37:35;;;;;;;2.72;0.52;;;;;;;10.80;50.85;95339.00;5047119;28;20224;-63
2023/03/02 03:40:02;;;;;;;0.00;0.00;;;;;;;11.02;49.78;95334.53;5049953;28;20227;-63
2023/03/02 03:42:30;;;;;;;0.30;0.30;;;;;;;11.11;49.95;95334.91;5048998;28;20462;-62
2023/03/02 03:44:58;;;;;;;0.00;0.00;;;;;;;10.77;50.24;95339.50;5066100;28;20477;-61
2023/03/02 03:47:25;;;;;;;0.00;0.00;;;;;;;10.99;50.23;95337.66;5048475;28;20204;-61
2023/03/02 03:49:52;;;;;;;0.00;0.00;;;;;;;10.85;50.26;95335.66;5058730;28;20462;-62
2023/03/02 03:52:29;;;;;;;0.00;0.00;;;;;;;10.97;49.83;95336.31;5056715;28;20228;-63
2023/03/02 03:55:02;;;;;;;0.00;0.00;;;;;;;10.89;50.18;95334.91;5049705;28;20662;-64
2023/03/02 03:57:30;;;;;;;0.00;0.00;;;;;;;10.98;50.36;95336.06;5047695;28;20563;-64
2023/03/02 03:59:57;;;;;;;0.00;0.00;;;;;;;10.86;50.18;95338.03;5049489;28;20276;-64
2023/03/02 04:02:24;;;;;;;0.00;0.00;;;;;;;10.73;50.72;95343.66;5055469;28;20452;-64
2023/03/02 04:04:51;;;;;;;0.00;0.00;;;;;;;10.76;50.94;95335.31;5061027;28;20443;-62
2023/03/02 04:07:18;;;;;;;0.00;0.00;;;;;;;10.82;50.08;95331.69;5048867;28;20439;-64
2023/03/02 04:09:45;;;;;;;0.27;0.27;;;;;;;10.93;50.68;95333.38;5062405;28;20447;-62
2023/03/02 04:12:14;;;;;;;0.00;0.00;;;;;;;10.87;50.65;95331.78;5055862;28;20485;-65
2023/03/02 04:14:51;;;;;;;0.00;0.00;;;;;;;10.88;50.70;95338.59;5051030;28;20478;-63
2023/03/02 04:17:18;;;;;;;0.00;0.00;;;;;;;10.67;51.11;95328.91;5049401;28;20219;-62
2023/03/02 04:19:47;;;;;;;0.00;0.00;;;;;;;10.72;51.09;95331.59;5055752;28;20474;-59
2023/03/02 04:22:16;;;;;;;0.00;0.00;;;;;;;10.82;50.99;95331.69;5057240;28;20458;-61
2023/03/02 04:24:46;;;;;;;0.00;0.00;;;;;;;10.89;50.94;95329.66;5052123;28;20443;-62
2023/03/02 04:27:14;;;;;;;0.00;0.00;;;;;;;10.81;50.91;95330.13;5053737;28;20211;-63
2023/03/02 04:29:42;;;;;;;0.00;0.00;;;;;;;10.81;50.90;95332.75;5069083;28;20440;-64
2023/03/02 04:32:13;;;;;;;0.00;0.00;;;;;;;10.72;51.30;95328.16;5065648;28;20196;-63
2023/03/02 04:34:43;;;;;;;0.00;0.00;;;;;;;10.84;51.10;95319.13;5057984;28;20465;-61
2023/03/02 04:37:10;;;;;;;0.00;0.00;;;;;;;10.74;50.52;95324.28;5050781;28;20475;-61
2023/03/02 04:39:37;;;;;;;0.00;0.00;;;;;;;10.83;50.79;95322.81;5065007;28;20443;-63
2023/03/02 04:42:04;;;;;;;0.00;0.00;;;;;;;10.65;50.75;95311.84;5051831;28;20949;-62
2023/03/02 04:44:31;;;;;;;0.10;0.10;;;;;;;10.62;51.05;95331.47;5061826;28;20818;-62
2023/03/02 04:46:57;;;;;;;0.00;0.00;;;;;;;10.48;51.45;95335.50;5064914;28;20188;-64
2023/03/02 04:49:24;;;;;;;0.20;0.20;;;;;;;10.44;51.52;95321.28;5060880;28;20443;-64
2023/03/02 04:51:51;;;;;;;0.07;0.07;;;;;;;10.54;51.53;95345.00;5055137;28;20442;-62
2023/03/02 04:54:21;;;;;;;0.00;0.00;;;;;;;10.44;52.14;95349.34;5052916;28;20458;-62
2023/03/02 04:56:50;;;;;;;0.00;0.00;;;;;;;10.49;51.58;95342.31;5056371;28;20920;-61
2023/03/02 04:59:24;;;;;;;0.00;0.00;;;;;;;10.54;51.66;95334.53;5065574;28;20230;-62
2023/03/02 05:01:54;;;;;;;0.00;0.00;;;;;;;10.59;51.31;95342.44;5060471;28;20722;-61
2023/03/02 05:04:21;;;;;;;0.00;0.00;;;;;;;10.51;51.40;95340.22;5064151;28;20442;-64
2023/03/02 05:06:48;;;;;;;0.20;0.20;;;;;;;10.53;51.22;95351.28;5059316;28;20835;-62
2023/03/02 05:09:15;;;;;;;0.00;0.00;;;;;;;10.71;51.24;95337.84;5065631;28;20447;-61
2023/03/02 05:11:42;;;;;;;0.00;0.00;;;;;;;10.71;51.08;95345.72;5051586;28;20450;-60
2023/03/02 05:14:11;;;;;;;0.40;0.40;;;;;;;10.45;51.02;95341.22;5052143;28;20450;-63
2023/03/02 05:16:40;;;;;;;0.00;0.00;;;;;;;10.53;51.72;95353.88;5051208;28;20204;-62
2023/03/02 05:19:09;;;;;;;0.17;0.17;;;;;;;10.49;51.22;95342.31;5051304;28;20236;-62
2023/03/02 05:21:36;;;;;;;1.25;0.98;;;;;;;10.61;51.42;95353.47;5051847;28;20200;-63
2023/03/02 05:24:04;;;;;;;0.00;0.00;;;;;;;10.35;52.05;95328.00;5052747;28;20592;-63
2023/03/02 05:26:31;;;;;;;1.42;0.63;;;;;;;10.61;51.58;95350.06;5065557;28;20209;-62
2023/03/02 05:28:58;;;;;;;0.10;0.10;;;;;;;10.64;51.12;95355.59;5065021;28;20254;-63
2023/03/02 05:31:30;;;;;;;0.38;0.20;;;;;;;10.83;51.31;95364.75;5056579;28;20287;-62
2023/03/02 05:33:57;;;;;;;0.00;0.00;;;;;;;10.88;50.83;95366.63;5051800;28;20204;-63
2023/03/02 05:36:25;;;;;;;0.30;0.30;;;;;;;10.80;51.77;95359.97;5052765;28;20535;-61
2023/03/02 05:38:52;;;;;;;0.00;0.00;;;;;;;10.90;51.26;95360.09;5065235;28;20817;-63
2023/03/02 05:41:19;;;;;;;0.00;0.00;;;;;;;10.99;51.38;95353.38;5061300;28;20545;-61
2023/03/02 05:43:46;;;;;;;0.00;0.00;;;;;;;10.97;50.67;95360.69;5064189;28;20303;-61
2023/03/02 05:46:12;;;;;;;0.10;0.10;;;;;;;11.02;52.23;95363.38;5069145;28;20552;-64
2023/03/02 05:48:41;;;;;;;0.97;0.97;;;;;;;10.91;51.63;95356.44;5060506;28;20443;-68
2023/03/02 05:51:08;;;;;;;0.30;0.30;;;;;;;10.90;51.59;95362.72;5065857;28;20965;-65
2023/03/02 05:53:35;;;;;;;0.20;0.20;;;;;;;11.05;51.00;95362.91;5068074;28;20792;-60
2023/03/02 05:56:02;;;;;;;0.00;0.00;;;;;;;10.88;50.58;95367.41;5068872;28;20446;-64
2023/03/02 05:58:29;;;;;;;0.10;0.10;;;;;;;11.23;50.15;95369.63;5050717;28;20217;-63
2023/03/02 06:00:56;;;;;;;0.23;0.23;;;;;;;11.25;49.87;95372.81;5053862;28;20509;-64
2023/03/02 06:03:23;;;;;;;0.00;0.00;;;;;;;11.15;49.79;95368.22;5056872;28;20470;-63
2023/03/02 06:05:51;;;;;;;0.00;0.00;;;;;;;11.11;49.90;95367.13;5049806;28;20203;-61
2023/03/02 06:08:19;;;;;;;0.32;0.32;;;;;;;11.12;50.04;95368.75;5050505;28;20854;-64
2023/03/02 06:10:46;;;;;;;0.10;0.10;;;;;;;11.28;50.04;95371.53;5050507;28;20194;-64
2023/03/02 06:13:14;;;;;;;1.60;0.85;;;;;;;11.32;49.88;95376.00;5051519;28;20529;-63
2023/03/02 06:15:42;;;;;;;0.00;0.00;;;;;;;11.20;49.92;95378.00;5050588;28;20668;-61
2023/03/02 06:18:11;;;;;;;6.85;1.10;;;;;;;11.28;50.80;95377.53;5052253;28;20973;-64
2023/03/02 06:20:39;;;;;;;0.00;0.00;;;;;;;10.86;50.78;95387.84;5050329;28;20236;-63
2023/03/02 06:23:06;;;;;;;0.13;0.13;;;;;;;11.34;50.02;95391.50;5051198;28;20207;-62
2023/03/02 06:25:34;;;;;;;0.10;0.10;;;;;;;11.59;49.15;95389.09;5050194;28;20253;-65
2023/03/02 06:28:01;;;;;;;2.20;0.95;;;;;;;11.10;50.12;95386.53;5050591;28;20651;-63
2023/03/02 06:30:28;;;;;;;0.00;0.00;;;;;;;11.24;49.72;95377.25;5050414;28;20212;-63
2023/03/02 06:32:55;;;;;;;0.10;0.10;;;;;;;11.25;50.01;95388.53;5048996;28;20981;-64
2023/03/02 06:35:22;;;;;;;0.20;0.20;;;;;;;11.20;49.98;95396.38;5046969;28;20443;-66
2023/03/02 06:37:50;;;;;;;0.10;0.10;;;;;;;11.07;50.70;95394.91;5048955;28;20213;-65
2023/03/02 06:40:17;;;;;;;0.20;0.20;;;;;;;11.26;49.44;95391.97;5047905;28;20454;-62
2023/03/02 06:42:45;;;;;;;0.00;0.00;;;;;;;11.46;49.27;95394.78;5048166;28;20193;-62
2023/03/02 06:45:12;;;;;;;0.10;0.10;;;;;;;11.67;48.63;95383.44;5049347;28;20192;-62
2023/03/02 06:47:39;;;;;;;0.00;0.00;;;;;;;11.66;49.15;95389.75;5050068;28;20200;-63
2023/03/02 06:50:07;;;;;;;0.10;0.10;;;;;;;11.50;49.27;95387.97;5050931;28;20560;-64
2023/03/02 06:52:34;;;;;;;0.00;0.00;;;;;;;11.73;48.66;95390.34;5050615;28;20447;-63
2023/03/02 06:55:01;;;;;;;0.00;0.00;;;;;;;11.68;49.06;95390.25;5050134;28;20988;-64
2023/03/02 06:57:34;;;;;;;0.10;0.10;;;;;;;11.48;49.47;95390.09;5049729;28;20764;-64
2023/03/02 07:00:08;;;;;;;0.20;0.20;;;;;;;11.60;49.06;95388.09;5050302;28;20435;-64
2023/03/02 07:02:36;;;;;;;0.00;0.00;;;;;;;11.72;49.25;95388.72;5049865;28;20467;-62
2023/03/02 07:05:03;;;;;;;2.90;0.83;;;;;;;11.72;49.13;95388.72;5050053;28;20844;-62
2023/03/02 07:07:30;;;;;;;0.00;0.00;;;;;;;11.71;48.89;95387.16;5049535;28;20446;-63
2023/03/02 07:09:57;;;;;;;0.10;0.10;;;;;;;11.73;48.70;95385.84;5050216;28;20453;-63
2023/03/02 07:12:24;;;;;;;0.30;0.30;;;;;;;11.47;49.47;95376.16;5049396;28;20200;-63
2023/03/02 07:14:51;;;;;;;0.00;0.00;;;;;;;11.20;49.57;95391.88;5050044;28;20933;-66
2023/03/02 07:17:18;;;;;;;0.20;0.20;;;;;;;11.51;49.16;95393.00;5049392;28;20985;-63
2023/03/02 07:19:45;;;;;;;0.00;0.00;;;;;;;11.16;49.47;95396.06;5050172;28;20498;-62
2023/03/02 07:22:12;;;;;;;0.00;0.00;;;;;;;11.48;49.10;95392.72;5050142;28;20508;-63
2023/03/02 07:24:57;;;;;;;0.37;0.37;;;;;;;11.44;48.83;95375.88;5050339;28;20208;-62
2023/03/02 07:27:24;;;;;;;0.00;0.00;;;;;;;11.48;48.80;95397.97;5049445;28;20836;-65
2023/03/02 07:29:51;;;;;;;0.10;0.10;;;;;;;11.11;49.76;95361.91;5050119;28;20438;-62
2023/03/02 07:32:17;;;;;;;1.60;0.93;;;;;;;11.33;49.18;95389.94;5048900;28;20534;-63
2023/03/02 07:34:44;;;;;;;0.10;0.10;;;;;;;11.45;49.19;95395.81;5049903;28;20524;-63
2023/03/02 07:37:11;;;;;;;0.47;0.47;;;;;;;11.52;48.77;95393.78;5050473;28;20511;-62
2023/03/02 07:39:38;;;;;;;0.00;0.00;;;;;;;11.29;49.76;95384.38;5050497;28;20534;-63
2023/03/02 07:42:07;;;;;;;0.00;0.00;;;;;;;11.55;49.05;95388.03;5049276;28;20922;-62
2023/03/02 07:44:34;;;;;;;0.50;0.40;;;;;;;11.54;48.82;95395.13;5050207;28;20538;-62
2023/03/02 07:47:01;;;;;;;0.33;0.33;;;;;;;11.59;48.68;95391.72;5051976;28;20493;-64
2023/03/02 07:49:28;;;;;;;0.00;0.00;;;;;;;11.72;48.16;95391.34;5051225;28;20478;-65
2023/03/02 07:51:55;;;;;;;0.00;0.00;;;;;;;11.49;48.83;95394.28;5050117;28;20505;-64
2023/03/02 07:54:25;;;;;;;0.00;0.00;;;;;;;11.43;48.97;95400.50;5049783;28;20446;-61
2023/03/02 07:56:52;;;;;;;0.00;0.00;;;;;;;11.42;48.58;95389.25;5048700;28;20809;-63
2023/03/02 07:59:19;;;;;;;0.00;0.00;;;;;;;11.53;49.15;95390.13;5049472;28;20494;-66
2023/03/02 08:01:45;;;;;;;0.63;0.50;;;;;;;11.72;48.31;95393.97;5048824;28;20629;-62
2023/03/02 08:04:12;;;;;;;0.50;0.37;;;;;;;11.35;48.52;95383.38;5049337;28;20512;-63
2023/03/02 08:06:39;;;;;;;0.00;0.00;;;;;;;11.51;48.78;95390.38;5048833;28;20447;-64
2023/03/02 08:09:08;;;;;;;0.37;0.37;;;;;;;11.37;49.13;95383.91;5049711;28;20443;-63
2023/03/02 08:11:35;;;;;;;0.27;0.27;;;;;;;11.50;48.77;95383.53;5048505;28;20451;-63
2023/03/02 08:14:02;;;;;;;0.10;0.10;;;;;;;11.44;49.58;95381.13;5049481;28;20623;-62
2023/03/02 08:16:29;;;;;;;0.13;0.13;;;;;;;11.42;49.07;95338.59;5049067;28;20431;-64
2023/03/02 08:18:56;;;;;;;0.20;0.20;;;;;;;11.54;49.37;95371.50;5048630;28;20577;-61
2023/03/02 08:21:28;;;;;;;0.00;0.00;;;;;;;11.49;49.89;95383.78;5048537;28;20956;-64
2023/03/02 08:23:56;;;;;;;0.27;0.27;;;;;;;11.90;49.80;95383.09;5048944;28;20984;-63
2023/03/02 08:26:23;;;;;;;0.30;0.30;;;;;;;11.35;50.34;95382.59;5048599;28;20451;-63
2023/03/02 08:28:50;;;;;;;0.30;0.30;;;;;;;11.24;50.46;95379.88;5050735;28;20441;-64
2023/03/02 08:31:17;;;;;;;1.40;0.73;;;;;;;11.74;50.15;95371.69;5049141;28;20532;-62
2023/03/02 08:33:44;;;;;;;0.20;0.20;;;;;;;12.10;49.66;95370.09;5049695;28;20430;-64
2023/03/02 08:36:15;;;;;;;0.00;0.00;;;;;;;12.11;49.78;95377.75;5048400;28;20446;-64
2023/03/02 08:38:43;;;;;;;0.00;0.00;;;;;;;12.03;51.02;95374.78;5049150;28;20475;-65
2023/03/02 08:41:13;;;;;;;0.37;0.37;;;;;;;12.00;50.14;95370.06;5049812;28;20427;-64
2023/03/02 08:43:42;;;;;;;0.80;0.40;;;;;;;11.83;50.81;95377.28;5049044;28;20550;-65
2023/03/02 08:46:10;;;;;;;1.60;1.50;;;;;;;11.97;50.47;95366.09;5048719;28;20500;-62
2023/03/02 08:48:38;;;;;;;0.87;0.87;;;;;;;11.99;51.18;95373.72;5049615;28;21032;-64
2023/03/02 08:51:07;;;;;;;0.53;0.53;;;;;;;12.02;50.57;95378.47;5048614;28;20814;-63
2023/03/02 08:53:37;;;;;;;0.00;0.00;;;;;;;11.91;50.76;95372.38;5049072;28;20978;-62
2023/03/02 08:56:13;;;;;;;0.00;0.00;;;;;;;12.13;50.19;95374.88;5049015;28;20496;-64
2023/03/02 08:58:40;;;;;;;0.47;0.47;;;;;;;11.93;50.60;95374.75;5048666;28;20466;-64
2023/03/02 09:01:13;;;;;;;0.00;0.00;;;;;;;12.26;49.97;95363.94;5048696;28;20443;-63
2023/03/02 09:03:41;;;;;;;0.37;0.37;;;;;;;11.88;50.30;95361.53;5052963;28;20450;-64
2023/03/02 09:06:07;;;;;;;0.20;0.20;;;;;;;11.83;50.38;95364.16;5050844;28;20860;-62
2023/03/02 09:08:34;;;;;;;0.10;0.10;;;;;;;12.24;49.41;95360.75;5053960;28;20442;-63
2023/03/02 09:11:01;;;;;;;0.00;0.00;;;;;;;12.50;48.91;95365.09;5052084;28;20529;-63
2023/03/02 09:13:28;;;;;;;0.13;0.13;;;;;;;12.41;48.77;95361.38;5052825;28;20553;-65
2023/03/02 09:15:56;;;;;;;0.47;0.47;;;;;;;12.21;48.51;95359.41;5051823;28;20960;-64
2023/03/02 09:18:23;;;;;;;0.00;0.00;;;;;;;12.01;49.44;95355.88;5060432;28;20498;-62
2023/03/02 09:20:50;;;;;;;1.27;0.57;;;;;;;12.44;48.52;95363.50;5056586;28;20438;-66
2023/03/02 09:23:19;;;;;;;1.27;0.87;;;;;;;12.29;49.20;95365.25;5052094;28;20439;-65
2023/03/02 09:25:47;;;;;;;0.10;0.10;;;;;;;12.41;48.30;95360.59;5051355;28;20438;-63
2023/03/02 09:28:16;;;;;;;1.03;0.87;;;;;;;12.50;48.51;95365.09;5051805;28;20553;-65
2023/03/02 09:31:01;;;;;;;0.10;0.10;;;;;;;12.27;48.68;95359.44;5051489;28;20446;-63
2023/03/02 09:33:30;;;;;;;0.20;0.20;;;;;;;12.45;48.75;95362.44;5052197;28;20988;-65
2023/03/02 09:35:57;;;;;;;5.00;0.93;;;;;;;12.18;49.07;95362.56;5051609;28;20758;-61
2023/03/02 09:38:24;;;;;;;0.83;0.83;;;;;;;12.14;49.59;95361.50;5052122;28;20547;-63
2023/03/02 09:41:12;;;;;;;0.00;0.00;;;;;;;11.97;49.85;95360.06;5052539;28;20477;-63
2023/03/02 09:43:48;;;;;;;0.00;0.00;;;;;;;11.81;50.13;95353.09;5052434;28;20516;-61
2023/03/02 09:46:29;;;;;;;0.10;0.10;;;;;;;12.07;49.92;95355.66;5049884;28;20542;-65
2023/03/02 09:49:02;;;;;;;0.33;0.33;;;;;;;12.06;49.86;95358.56;5051723;28;20439;-62
2023/03/02 09:51:44;;;;;;;0.20;0.20;;;;;;;12.29;49.69;95360.78;5051039;28;20451;-65
2023/03/02 09:54:17;;;;;;;4.90;1.30;;;;;;;12.12;49.91;95357.53;5051254;28;20958;-63
2023/03/02 09:56:53;;;;;;;0.90;0.73;;;;;;;12.13;49.63;95359.13;5049916;28;20512;-66
2023/03/02 09:59:24;;;;;;;0.73;0.73;;;;;;;12.03;49.77;95357.22;5051751;28;20494;-61
2023/03/02 10:02:22;;;;;;;0.03;0.03;;;;;;;12.16;49.61;95353.34;5051484;28;20448;-64
2023/03/02 10:04:53;;;;;;;0.20;0.20;;;;;;;12.01;49.90;95361.13;5051269;28;20530;-63
2023/03/02 10:07:28;;;;;;;0.00;0.00;;;;;;;12.19;49.33;95358.09;5051427;28;20451;-65
2023/03/02 10:10:05;;;;;;;1.27;1.17;;;;;;;12.45;48.94;95354.56;5051494;28;20515;-61
2023/03/02 10:12:50;;;;;;;0.30;0.30;;;;;;;12.68;48.59;95356.75;5050748;28;20450;-61
2023/03/02 10:15:36;;;;;;;0.33;0.33;;;;;;;12.62;47.84;95355.19;5051057;28;20883;-62
2023/03/02 10:18:22;;;;;;;0.10;0.10;;;;;;;12.46;48.26;95358.00;5051176;28;20478;-60
2023/03/02 10:20:55;;;;;;;0.30;0.23;;;;;;;12.49;48.27;95357.47;5050675;28;20529;-62
2023/03/02 10:23:45;;;;;;;0.10;0.10;;;;;;;12.57;48.03;95359.63;5051202;28;20446;-62
2023/03/02 10:26:28;;;;;;;0.00;0.00;;;;;;;12.15;48.50;95357.81;5050406;28;20581;-64
2023/03/02 10:29:27;;;;;;;0.00;0.00;;;;;;;12.31;48.09;95340.31;5051189;28;20451;-63
2023/03/02 10:32:21;;;;;;;0.20;0.20;;;;;;;12.13;48.49;95354.63;5056061;28;20554;-64
2023/03/02 10:34:50;;;;;;;0.10;0.10;;;;;;;12.33;47.99;95353.97;5052534;28;20833;-63
2023/03/02 10:37:24;;;;;;;0.77;0.30;;;;;;;12.18;48.10;95346.00;5050244;28;20501;-63
2023/03/02 10:39:51;;;;;;;0.00;0.00;;;;;;;12.42;47.74;95347.19;5050503;28;20507;-63
2023/03/02 10:42:24;;;;;;;0.00;0.00;;;;;;;12.38;47.88;95330.34;5050262;28;20446;-64
2023/03/02 10:44:55;;;;;;;0.00;0.00;;;;;;;12.43;47.59;95337.44;5050414;28;20974;-64
2023/03/02 10:47:27;;;;;;;2.53;0.93;;;;;;;12.43;47.64;95333.00;5049925;28;20440;-62
2023/03/02 10:49:56;;;;;;;0.10;0.10;;;;;;;12.44;47.71;95333.78;5050521;28;20439;-65
2023/03/02 10:52:25;;;;;;;0.27;0.13;;;;;;;12.50;47.28;95333.56;5050318;28;20484;-65
2023/03/02 10:55:12;;;;;;;0.37;0.37;;;;;;;12.47;47.83;95335.91;5050994;28;20450;-62
2023/03/02 10:57:41;;;;;;;0.10;0.10;;;;;;;12.03;48.51;95323.06;5051683;28;20513;-63
2023/03/02 11:00:16;;;;;;;0.00;0.00;;;;;;;12.67;47.29;95334.16;5052737;28;20598;-63
2023/03/02 11:02:53;;;;;;;0.20;0.20;;;;;;;12.23;48.50;95322.38;5049399;28;20492;-62
2023/03/02 11:05:31;;;;;;;0.00;0.00;;;;;;;12.43;47.22;95322.47;5050224;28;20451;-63
2023/03/02 11:08:05;;;;;;;0.10;0.10;;;;;;;12.30;48.02;95316.91;5050020;28;20446;-62
2023/03/02 11:10:40;;;;;;;0.10;0.10;;;;;;;12.74;46.82;95326.03;5049529;28;20443;-62
2023/03/02 11:13:31;;;;;;;0.00;0.00;;;;;;;12.87;46.53;95317.66;5051460;28;20457;-65
2023/03/02 11:16:02;;;;;;;0.20;0.20;;;;;;;12.61;46.63;95298.38;5050436;28;20522;-64
2023/03/02 11:18:53;;;;;;;0.67;0.50;;;;;;;12.48;46.90;95309.34;5049550;28;20494;-63
2023/03/02 11:21:44;;;;;;;0.00;0.00;;;;;;;12.75;46.65;95312.63;5049715;28;20450;-65
2023/03/02 11:24:32;;;;;;;0.83;0.80;;;;;;;12.95;46.28;95310.06;5050112;28;20447;-66
2023/03/02 11:27:05;;;;;;;0.83;0.73;;;;;;;13.04;45.25;95297.22;5049130;28;20942;-63
2023/03/02 11:29:44;;;;;;;0.77;0.77;;;;;;;13.16;45.74;95300.38;5050205;28;20450;-62
2023/03/02 11:32:18;;;;;;;0.27;0.27;;;;;;;12.97;45.01;95289.53;5049662;28;20512;-66
2023/03/02 11:35:00;;;;;;;0.00;0.00;;;;;;;12.95;45.71;95289.03;5050000;28;20449;-64
2023/03/02 11:37:45;;;;;;;0.00;0.00;;;;;;;13.03;45.51;95291.16;5049792;28;20977;-62
2023/03/02 11:40:25;;;;;;;0.30;0.30;;;;;;;12.89;45.52;95284.00;5051533;28;20475;-63
2023/03/02 11:42:56;;;;;;;0.37;0.23;;;;;;;12.27;46.62;95296.38;5051312;28;20439;-63
2023/03/02 11:45:27;;;;;;;0.00;0.00;;;;;;;12.58;46.25;95293.63;5049134;28;20443;-65
2023/03/02 11:48:06;;;;;;;0.60;0.60;;;;;;;12.93;45.59;95293.75;5049879;28;20439;-63
2023/03/02 11:50:43;;;;;;;0.00;0.00;;;;;;;13.14;45.12;95290.13;5049038;28;20450;-63